Time;durP1;ratioP1;P1;durP2;ratioP2;P2;SDS_P1;SDS_P2;PMS_P1;PMS_P2;Temp;Humidity;BMP_temperature;BMP_pressure;BME280_temperature;BME280_humidity;BME280_pressure;Samples;Min_cycle;Max_cycle;Signal;HPM_P1;HPM_P2
2021/09/16 00:00:58;;;;;;;11.70;7.53;;;;;;;;;;4996687;28;20070;-81
2021/09/16 00:03:25;;;;;;;13.00;7.60;;;;;;;;;;4994361;28;20490;-80
2021/09/16 00:05:51;;;;;;;13.43;7.53;;;;;;;;;;4996737;28;20058;-80
2021/09/16 00:08:18;;;;;;;15.55;7.10;;;;;;;;;;4995470;28;20037;-81
2021/09/16 00:10:44;;;;;;;12.18;7.60;;;;;;;;;;4996557;28;20092;-80
2021/09/16 00:13:11;;;;;;;11.93;7.70;;;;;;;;;;4995315;28;20110;-80
2021/09/16 00:15:37;;;;;;;11.07;7.30;;;;;;;;;;4995311;28;20026;-83
2021/09/16 00:18:03;;;;;;;12.82;7.80;;;;;;;;;;4995484;28;20036;-80
2021/09/16 00:20:30;;;;;;;10.95;7.20;;;;;;;;;;4995168;28;20037;-80
2021/09/16 00:22:56;;;;;;;14.35;6.63;;;;;;;;;;4996355;28;20038;-80
2021/09/16 00:25:22;;;;;;;12.07;7.25;;;;;;;;;;4996800;28;20045;-80
2021/09/16 00:27:48;;;;;;;13.52;8.13;;;;;;;;;;4995070;28;20041;-80
2021/09/16 00:30:15;;;;;;;10.85;7.13;;;;;;;;;;4996807;28;20105;-80
2021/09/16 00:32:41;;;;;;;11.98;7.40;;;;;;;;;;4996732;28;20018;-80
2021/09/16 00:35:08;;;;;;;13.85;7.15;;;;;;;;;;4996021;28;20054;-81
2021/09/16 00:37:36;;;;;;;12.88;7.45;;;;;;;;;;4996020;28;20101;-81
2021/09/16 00:40:04;;;;;;;13.40;7.32;;;;;;;;;;4996557;28;20038;-80
2021/09/16 00:42:30;;;;;;;15.05;8.15;;;;;;;;;;4995390;28;20065;-81
2021/09/16 00:44:56;;;;;;;11.82;7.38;;;;;;;;;;4995889;28;20475;-80
2021/09/16 00:47:23;;;;;;;11.10;7.38;;;;;;;;;;4996603;28;20490;-80
2021/09/16 00:49:49;;;;;;;11.25;7.07;;;;;;;;;;4995796;28;20030;-80
2021/09/16 00:52:17;;;;;;;10.85;7.30;;;;;;;;;;4994483;28;20027;-81
2021/09/16 00:54:44;;;;;;;10.73;7.22;;;;;;;;;;4994529;28;20435;-81
2021/09/16 00:57:12;;;;;;;10.18;7.25;;;;;;;;;;4994391;28;20464;-80
2021/09/16 00:59:38;;;;;;;19.63;7.00;;;;;;;;;;4995742;28;20022;-81
2021/09/16 01:02:05;;;;;;;10.70;6.70;;;;;;;;;;4994309;28;20041;-81
2021/09/16 01:04:32;;;;;;;12.70;6.95;;;;;;;;;;4995476;28;20097;-81
2021/09/16 01:06:59;;;;;;;9.00;5.95;;;;;;;;;;4994416;28;20053;-80
2021/09/16 01:09:26;;;;;;;10.65;7.60;;;;;;;;;;4995342;28;20102;-80
2021/09/16 01:11:52;;;;;;;9.38;7.35;;;;;;;;;;4995350;28;20027;-81
2021/09/16 01:14:22;;;;;;;12.65;7.50;;;;;;;;;;4995879;28;20031;-81
2021/09/16 01:16:49;;;;;;;11.55;7.10;;;;;;;;;;4994013;28;20364;-81
2021/09/16 01:19:15;;;;;;;9.73;7.03;;;;;;;;;;4994120;28;20105;-80
2021/09/16 01:21:41;;;;;;;12.43;7.28;;;;;;;;;;4995643;28;20045;-80
2021/09/16 01:24:07;;;;;;;11.13;7.43;;;;;;;;;;4993865;28;20019;-81
2021/09/16 01:26:33;;;;;;;11.38;7.55;;;;;;;;;;4995154;28;20030;-80
2021/09/16 01:29:00;;;;;;;12.00;7.18;;;;;;;;;;4995743;28;20050;-81
2021/09/16 01:31:35;;;;;;;13.50;6.53;;;;;;;;;;4995098;28;20042;-81
2021/09/16 01:34:02;;;;;;;11.32;6.47;;;;;;;;;;4993720;28;20022;-80
2021/09/16 01:36:28;;;;;;;14.48;7.22;;;;;;;;;;4995429;28;20030;-80
2021/09/16 01:38:54;;;;;;;12.85;7.03;;;;;;;;;;4993604;28;20026;-82
2021/09/16 01:41:21;;;;;;;11.10;7.00;;;;;;;;;;4993620;28;20042;-81
2021/09/16 01:43:47;;;;;;;9.30;6.85;;;;;;;;;;4994870;28;20070;-81
2021/09/16 01:46:14;;;;;;;9.93;6.93;;;;;;;;;;4994752;28;20026;-80
2021/09/16 01:48:40;;;;;;;11.35;7.35;;;;;;;;;;4994866;28;20027;-81
2021/09/16 01:51:06;;;;;;;9.18;6.95;;;;;;;;;;4994719;28;20117;-80
2021/09/16 01:53:32;;;;;;;8.80;6.65;;;;;;;;;;4993947;28;20360;-80
2021/09/16 01:55:59;;;;;;;9.98;6.72;;;;;;;;;;4993504;28;20026;-81
2021/09/16 01:58:25;;;;;;;16.60;8.60;;;;;;;;;;4994814;28;20085;-80
2021/09/16 02:00:51;;;;;;;13.90;7.00;;;;;;;;;;4995177;28;20501;-80
2021/09/16 02:03:18;;;;;;;12.07;7.18;;;;;;;;;;4994631;28;20030;-79
2021/09/16 02:05:44;;;;;;;10.32;7.22;;;;;;;;;;4995961;28;20058;-80
2021/09/16 02:08:10;;;;;;;10.43;7.28;;;;;;;;;;4994363;28;20022;-81
2021/09/16 02:10:36;;;;;;;13.48;7.15;;;;;;;;;;4994435;28;20112;-79
2021/09/16 02:13:02;;;;;;;12.60;7.55;;;;;;;;;;4994414;28;20032;-80
2021/09/16 02:15:28;;;;;;;12.18;7.20;;;;;;;;;;4995219;28;20026;-80
2021/09/16 02:17:55;;;;;;;10.23;7.57;;;;;;;;;;4994355;28;20072;-81
2021/09/16 02:20:21;;;;;;;13.48;7.53;;;;;;;;;;4994371;28;20391;-80
2021/09/16 02:22:47;;;;;;;16.30;7.53;;;;;;;;;;4992874;28;20398;-79
2021/09/16 02:25:13;;;;;;;11.75;7.60;;;;;;;;;;4992925;28;20023;-81
2021/09/16 02:27:39;;;;;;;11.50;7.78;;;;;;;;;;4993330;28;20219;-81
2021/09/16 02:30:06;;;;;;;13.30;8.02;;;;;;;;;;4994268;28;20025;-80
2021/09/16 02:32:33;;;;;;;13.25;8.20;;;;;;;;;;4994330;28;20034;-80
2021/09/16 02:35:00;;;;;;;10.90;7.47;;;;;;;;;;4994096;28;20085;-80
2021/09/16 02:37:26;;;;;;;11.20;7.90;;;;;;;;;;4993153;28;20040;-80
2021/09/16 02:39:52;;;;;;;11.98;7.75;;;;;;;;;;4992797;28;20558;-81
2021/09/16 02:42:19;;;;;;;10.70;7.47;;;;;;;;;;4995054;28;20034;-80
2021/09/16 02:44:45;;;;;;;10.05;7.35;;;;;;;;;;4994575;28;20499;-80
2021/09/16 02:47:11;;;;;;;11.85;7.72;;;;;;;;;;4994134;28;20027;-80
2021/09/16 02:49:37;;;;;;;12.90;8.57;;;;;;;;;;4994363;28;20077;-80
2021/09/16 02:52:04;;;;;;;10.40;7.13;;;;;;;;;;4993038;28;20029;-81
2021/09/16 02:54:30;;;;;;;13.15;8.20;;;;;;;;;;4994288;28;20472;-80
2021/09/16 02:56:56;;;;;;;13.35;8.70;;;;;;;;;;4992810;28;20038;-80
2021/09/16 02:59:23;;;;;;;11.13;8.32;;;;;;;;;;4993942;28;20030;-81
2021/09/16 03:01:49;;;;;;;10.55;8.05;;;;;;;;;;4994287;28;20057;-79
2021/09/16 03:04:15;;;;;;;11.35;8.13;;;;;;;;;;4992810;28;20034;-84
2021/09/16 03:06:41;;;;;;;12.63;7.85;;;;;;;;;;4993008;28;20031;-78
2021/09/16 03:09:07;;;;;;;9.35;7.35;;;;;;;;;;4992753;28;20030;-81
2021/09/16 03:11:33;;;;;;;12.80;8.75;;;;;;;;;;4992664;28;20166;-84
2021/09/16 03:14:00;;;;;;;14.85;7.88;;;;;;;;;;4992677;28;20032;-81
2021/09/16 03:16:26;;;;;;;11.35;8.05;;;;;;;;;;4993957;28;20053;-81
2021/09/16 03:18:52;;;;;;;12.77;8.23;;;;;;;;;;4994343;28;20106;-80
2021/09/16 03:21:19;;;;;;;12.98;8.68;;;;;;;;;;4992295;28;20044;-80
2021/09/16 03:23:45;;;;;;;14.27;8.55;;;;;;;;;;4993623;28;20031;-81
2021/09/16 03:26:11;;;;;;;12.90;7.90;;;;;;;;;;4993598;28;20026;-80
2021/09/16 03:28:39;;;;;;;11.88;8.25;;;;;;;;;;4992387;28;20027;-81
2021/09/16 03:31:07;;;;;;;13.55;8.07;;;;;;;;;;4993612;28;20085;-80
2021/09/16 03:33:33;;;;;;;14.20;8.00;;;;;;;;;;4994291;28;20027;-80
2021/09/16 03:35:59;;;;;;;12.13;7.90;;;;;;;;;;4993517;28;20034;-80
2021/09/16 03:38:26;;;;;;;12.50;7.80;;;;;;;;;;4996970;28;20427;-88
2021/09/16 03:40:52;;;;;;;9.82;7.82;;;;;;;;;;4995648;28;20141;-80
2021/09/16 03:43:18;;;;;;;11.25;8.65;;;;;;;;;;4995865;28;20073;-79
2021/09/16 03:45:44;;;;;;;13.15;8.07;;;;;;;;;;4995632;28;20027;-83
2021/09/16 03:48:11;;;;;;;13.65;8.20;;;;;;;;;;4995569;28;20498;-87
2021/09/16 03:50:37;;;;;;;13.77;8.27;;;;;;;;;;4995496;28;20042;-80
2021/09/16 03:53:03;;;;;;;16.25;9.15;;;;;;;;;;4997255;28;20030;-81
2021/09/16 03:55:30;;;;;;;13.23;9.05;;;;;;;;;;4997159;28;20109;-81
2021/09/16 03:57:56;;;;;;;10.80;8.18;;;;;;;;;;4996710;28;20037;-80
2021/09/16 04:00:23;;;;;;;11.32;8.50;;;;;;;;;;4997050;28;20494;-83
2021/09/16 04:02:49;;;;;;;16.15;7.78;;;;;;;;;;4997118;28;20029;-80
2021/09/16 04:05:15;;;;;;;13.57;8.68;;;;;;;;;;4996293;28;20134;-80
2021/09/16 04:07:42;;;;;;;11.85;8.20;;;;;;;;;;4996706;28;20097;-79
2021/09/16 04:10:09;;;;;;;11.82;8.27;;;;;;;;;;4995200;28;20434;-80
2021/09/16 04:12:35;;;;;;;15.35;8.88;;;;;;;;;;4995177;28;20489;-81
2021/09/16 04:15:02;;;;;;;17.45;9.07;;;;;;;;;;4996436;28;20034;-81
2021/09/16 04:17:29;;;;;;;14.88;9.43;;;;;;;;;;4995250;28;20134;-80
2021/09/16 04:19:55;;;;;;;14.07;9.18;;;;;;;;;;4996648;28;20092;-80
2021/09/16 04:22:21;;;;;;;15.15;8.90;;;;;;;;;;4996150;28;20028;-80
2021/09/16 04:24:48;;;;;;;11.85;8.57;;;;;;;;;;4994832;28;20503;-81
2021/09/16 04:27:14;;;;;;;14.20;8.95;;;;;;;;;;4996119;28;20498;-81
2021/09/16 04:29:41;;;;;;;17.88;8.45;;;;;;;;;;4995060;28;20023;-80
2021/09/16 04:32:07;;;;;;;16.80;9.40;;;;;;;;;;4996170;28;20026;-78
2021/09/16 04:34:33;;;;;;;16.70;8.52;;;;;;;;;;4994877;28;20498;-80
2021/09/16 04:36:59;;;;;;;13.88;8.88;;;;;;;;;;4994692;28;20030;-79
2021/09/16 04:39:25;;;;;;;16.80;9.02;;;;;;;;;;4994887;28;20034;-78
2021/09/16 04:41:52;;;;;;;12.50;8.70;;;;;;;;;;4996028;28;20046;-83
2021/09/16 04:44:18;;;;;;;13.13;8.80;;;;;;;;;;4994752;28;20019;-78
2021/09/16 04:46:44;;;;;;;14.68;8.07;;;;;;;;;;4994595;28;20034;-85
2021/09/16 04:49:10;;;;;;;12.35;8.65;;;;;;;;;;4993951;28;20026;-81
2021/09/16 04:51:36;;;;;;;14.32;8.77;;;;;;;;;;4995623;28;20104;-79
2021/09/16 04:54:02;;;;;;;13.90;9.23;;;;;;;;;;4994570;28;20121;-86
2021/09/16 04:56:28;;;;;;;13.30;9.73;;;;;;;;;;4994265;28;20037;-80
2021/09/16 04:58:54;;;;;;;12.88;8.68;;;;;;;;;;4994195;28;20030;-80
2021/09/16 05:01:20;;;;;;;14.80;9.88;;;;;;;;;;4994316;28;20038;-80
2021/09/16 05:03:48;;;;;;;13.15;9.13;;;;;;;;;;4994523;28;20062;-78
2021/09/16 05:06:15;;;;;;;15.35;8.95;;;;;;;;;;4994571;28;20050;-81
2021/09/16 05:08:42;;;;;;;13.63;8.90;;;;;;;;;;4997350;28;20085;-81
2021/09/16 05:11:09;;;;;;;12.00;8.00;;;;;;;;;;4993990;28;20061;-78
2021/09/16 05:13:35;;;;;;;18.27;8.95;;;;;;;;;;4994526;28;20026;-87
2021/09/16 05:16:01;;;;;;;11.90;8.82;;;;;;;;;;4995493;28;20086;-81
2021/09/16 05:18:27;;;;;;;13.52;9.38;;;;;;;;;;4995166;28;20053;-80
2021/09/16 05:20:53;;;;;;;13.68;8.77;;;;;;;;;;4993788;28;20038;-80
2021/09/16 05:23:19;;;;;;;13.93;8.73;;;;;;;;;;4993747;28;20392;-79
2021/09/16 05:25:46;;;;;;;12.35;7.95;;;;;;;;;;4993935;28;20073;-84
2021/09/16 05:28:12;;;;;;;19.42;8.73;;;;;;;;;;4999565;28;20026;-86
2021/09/16 05:30:38;;;;;;;13.43;9.02;;;;;;;;;;4995246;28;20488;-84
2021/09/16 05:33:09;;;;;;;11.57;7.65;;;;;;;;;;4996529;28;20038;-85
2021/09/16 05:35:38;;;;;;;13.25;7.80;;;;;;;;;;4995012;28;20022;-84
2021/09/16 05:38:08;;;;;;;13.25;7.70;;;;;;;;;;4993839;28;20034;-84
2021/09/16 05:40:34;;;;;;;12.18;7.18;;;;;;;;;;4994122;28;20026;-80
2021/09/16 05:43:00;;;;;;;13.70;7.97;;;;;;;;;;4994524;28;20030;-79
2021/09/16 05:45:27;;;;;;;8.15;6.57;;;;;;;;;;4994351;28;20065;-86
2021/09/16 05:47:53;;;;;;;14.73;6.78;;;;;;;;;;4995090;28;20065;-79
2021/09/16 05:50:19;;;;;;;10.07;7.07;;;;;;;;;;4994325;28;20442;-82
2021/09/16 05:52:45;;;;;;;11.77;7.03;;;;;;;;;;4995943;28;20490;-82
2021/09/16 05:55:12;;;;;;;17.98;7.80;;;;;;;;;;5006171;28;20034;-89
2021/09/16 05:57:38;;;;;;;11.73;7.03;;;;;;;;;;5014527;28;20029;-83
2021/09/16 06:00:05;;;;;;;9.00;6.68;;;;;;;;;;5012511;28;20025;-80
2021/09/16 06:02:31;;;;;;;14.00;6.43;;;;;;;;;;5014781;28;20466;-81
2021/09/16 06:04:58;;;;;;;10.68;6.13;;;;;;;;;;5013333;28;20498;-81
2021/09/16 06:07:24;;;;;;;11.38;5.85;;;;;;;;;;5014253;28;20065;-81
2021/09/16 06:09:50;;;;;;;7.93;4.78;;;;;;;;;;5014824;28;20014;-89
2021/09/16 06:12:16;;;;;;;13.40;4.63;;;;;;;;;;5014328;28;20037;-90
2021/09/16 06:14:43;;;;;;;8.82;4.95;;;;;;;;;;5014162;28;20041;-81
2021/09/16 06:17:10;;;;;;;8.95;5.03;;;;;;;;;;5016639;28;20088;-86
2021/09/16 06:19:36;;;;;;;9.65;5.22;;;;;;;;;;5016591;28;20030;-81
2021/09/16 06:22:02;;;;;;;7.63;5.20;;;;;;;;;;5014691;28;20503;-88
2021/09/16 06:24:29;;;;;;;12.30;5.30;;;;;;;;;;5014119;28;20061;-90
2021/09/16 06:26:55;;;;;;;9.57;4.93;;;;;;;;;;5015852;28;20032;-89
2021/09/16 06:29:21;;;;;;;7.85;4.85;;;;;;;;;;5013834;28;20026;-83
2021/09/16 06:31:47;;;;;;;8.65;4.53;;;;;;;;;;5013636;28;20084;-88
2021/09/16 06:34:13;;;;;;;7.93;4.72;;;;;;;;;;5013962;28;20030;-86
2021/09/16 06:36:39;;;;;;;8.13;4.97;;;;;;;;;;5015957;28;20030;-87
2021/09/16 06:39:05;;;;;;;8.10;4.93;;;;;;;;;;5017476;28;20046;-88
2021/09/16 06:41:31;;;;;;;8.63;4.25;;;;;;;;;;5017415;28;20041;-89
2021/09/16 06:43:57;;;;;;;8.63;5.03;;;;;;;;;;5014373;28;20072;-86
2021/09/16 06:46:24;;;;;;;8.95;4.97;;;;;;;;;;5017262;28;20526;-82
2021/09/16 06:48:50;;;;;;;9.55;4.78;;;;;;;;;;5015104;28;20033;-84
2021/09/16 06:51:16;;;;;;;7.10;4.35;;;;;;;;;;5017888;28;20061;-80
2021/09/16 06:53:43;;;;;;;7.55;4.03;;;;;;;;;;5015777;28;20026;-83
2021/09/16 06:56:09;;;;;;;6.82;4.30;;;;;;;;;;5018206;28;20022;-82
2021/09/16 06:58:35;;;;;;;7.10;4.10;;;;;;;;;;5017508;28;20053;-87
2021/09/16 07:01:02;;;;;;;9.68;4.70;;;;;;;;;;5015544;28;20095;-82
2021/09/16 07:03:28;;;;;;;5.80;3.55;;;;;;;;;;5016437;28;20018;-87
2021/09/16 07:05:54;;;;;;;8.50;4.10;;;;;;;;;;5017163;28;20054;-82
2021/09/16 07:08:20;;;;;;;9.23;4.13;;;;;;;;;;5015286;28;20455;-83
2021/09/16 07:10:47;;;;;;;5.90;3.60;;;;;;;;;;5013873;28;20037;-85
2021/09/16 07:13:13;;;;;;;9.05;4.10;;;;;;;;;;5018325;28;20033;-89
2021/09/16 07:15:39;;;;;;;9.80;4.70;;;;;;;;;;5018404;28;20080;-89
2021/09/16 07:18:05;;;;;;;6.38;4.20;;;;;;;;;;5017925;28;20022;-89
2021/09/16 07:20:31;;;;;;;7.90;4.00;;;;;;;;;;5017058;28;20030;-90
2021/09/16 07:22:58;;;;;;;9.07;4.57;;;;;;;;;;5016750;28;20493;-84
2021/09/16 07:25:24;;;;;;;7.15;4.30;;;;;;;;;;5018665;28;20018;-87
2021/09/16 07:27:51;;;;;;;6.88;4.35;;;;;;;;;;5018598;28;20038;-87
2021/09/16 07:30:17;;;;;;;8.00;4.30;;;;;;;;;;5018415;28;20026;-87
2021/09/16 07:32:43;;;;;;;12.10;4.50;;;;;;;;;;5016768;28;20033;-81
2021/09/16 07:35:10;;;;;;;7.60;4.03;;;;;;;;;;5017955;28;20026;-88
2021/09/16 07:37:36;;;;;;;5.72;3.58;;;;;;;;;;5016228;28;20116;-83
2021/09/16 07:40:03;;;;;;;7.60;3.20;;;;;;;;;;5016335;28;20033;-80
2021/09/16 07:42:30;;;;;;;7.47;3.15;;;;;;;;;;5016833;28;20394;-79
2021/09/16 07:44:56;;;;;;;4.72;2.92;;;;;;;;;;5016605;28;20136;-87
2021/09/16 07:47:22;;;;;;;3.55;2.22;;;;;;;;;;5015527;28;20116;-80
2021/09/16 07:49:48;;;;;;;11.43;3.22;;;;;;;;;;5016851;28;20145;-85
2021/09/16 07:52:15;;;;;;;5.70;3.17;;;;;;;;;;5016086;28;20022;-81
2021/09/16 07:54:41;;;;;;;5.97;3.38;;;;;;;;;;5015745;28;20117;-81
2021/09/16 07:57:07;;;;;;;5.05;3.05;;;;;;;;;;5015836;28;20026;-84
2021/09/16 07:59:34;;;;;;;12.75;3.40;;;;;;;;;;5017310;28;20040;-82
2021/09/16 08:02:00;;;;;;;5.35;3.10;;;;;;;;;;5018408;28;20041;-88
2021/09/16 08:04:27;;;;;;;8.77;2.97;;;;;;;;;;5022727;28;20057;-81
2021/09/16 08:06:53;;;;;;;8.57;3.00;;;;;;;;;;5018612;28;20026;-82
2021/09/16 08:09:19;;;;;;;7.35;3.03;;;;;;;;;;5017873;28;20029;-87
2021/09/16 08:11:45;;;;;;;5.20;2.83;;;;;;;;;;5016638;28;20397;-88
2021/09/16 08:14:12;;;;;;;6.47;2.75;;;;;;;;;;5016528;28;20603;-86
2021/09/16 08:16:38;;;;;;;5.97;2.90;;;;;;;;;;5016636;28;20025;-90
2021/09/16 08:19:05;;;;;;;6.45;2.95;;;;;;;;;;5015688;28;20120;-88
2021/09/16 08:21:32;;;;;;;10.50;3.08;;;;;;;;;;5017332;28;20041;-86
2021/09/16 08:23:58;;;;;;;7.18;2.88;;;;;;;;;;5016291;28;20101;-84
2021/09/16 08:26:25;;;;;;;4.93;2.95;;;;;;;;;;5017177;28;20032;-80
2021/09/16 08:28:58;;;;;;;10.52;2.90;;;;;;;;;;5016763;28;20033;-90
2021/09/16 08:31:24;;;;;;;5.32;2.65;;;;;;;;;;5017238;28;20022;-91
